Time;durP1;ratioP1;P1;durP2;ratioP2;P2;SDS_P1;SDS_P2;PMS_P1;PMS_P2;Temp;Humidity;BMP_temperature;BMP_pressure;BME280_temperature;BME280_humidity;BME280_pressure;Samples;Min_cycle;Max_cycle;Signal;HPM_P1;HPM_P2
2022/11/06 00:00:08;;;;;;;10.13;6.20;;;;;;;;;;5065534;28;20217;-33
2022/11/06 00:02:35;;;;;;;10.60;6.27;;;;;;;;;;5066602;28;20201;-30
2022/11/06 00:07:46;;;;;;;12.07;5.70;;;;;;;;;;5063238;28;20209;-32
2022/11/06 00:10:13;;;;;;;5.87;5.27;;;;;;;;;;5067261;28;20475;-32
2022/11/06 00:12:42;;;;;;;9.60;5.90;;;;;;;;;;5056447;28;20205;-30
2022/11/06 00:15:10;;;;;;;7.07;5.60;;;;;;;;;;5060472;28;20201;-28
2022/11/06 00:17:37;;;;;;;7.63;5.67;;;;;;;;;;5062038;28;20248;-29
2022/11/06 00:20:05;;;;;;;8.73;6.30;;;;;;;;;;5048125;28;20222;-27
2022/11/06 00:22:33;;;;;;;8.30;5.63;;;;;;;;;;5059406;28;20205;-31
2022/11/06 00:25:00;;;;;;;7.03;4.80;;;;;;;;;;5065905;28;20300;-29
2022/11/06 00:27:27;;;;;;;8.40;5.57;;;;;;;;;;5068446;28;20201;-30
2022/11/06 00:29:56;;;;;;;8.27;6.30;;;;;;;;;;5065575;28;20206;-30
2022/11/06 00:32:23;;;;;;;6.50;5.80;;;;;;;;;;5055651;28;20209;-29
2022/11/06 00:34:50;;;;;;;11.37;5.60;;;;;;;;;;5059403;28;20283;-30
2022/11/06 00:37:17;;;;;;;11.23;6.23;;;;;;;;;;5063339;28;20227;-31
2022/11/06 00:39:44;;;;;;;10.57;5.90;;;;;;;;;;5065140;28;20211;-29
2022/11/06 00:42:11;;;;;;;13.50;6.33;;;;;;;;;;5064842;28;20201;-31
2022/11/06 00:44:39;;;;;;;7.73;5.90;;;;;;;;;;5059422;28;20205;-32
2022/11/06 00:47:07;;;;;;;6.87;5.67;;;;;;;;;;5064653;28;20198;-28
2022/11/06 00:49:34;;;;;;;7.57;6.00;;;;;;;;;;5063152;28;20284;-30
2022/11/06 00:52:02;;;;;;;8.50;6.10;;;;;;;;;;5055578;28;20295;-30
2022/11/06 00:54:29;;;;;;;8.77;6.10;;;;;;;;;;5063037;28;20212;-29
2022/11/06 00:56:56;;;;;;;13.27;6.77;;;;;;;;;;5057931;28;20201;-32
2022/11/06 00:59:23;;;;;;;9.87;6.57;;;;;;;;;;5066429;28;20208;-31
2022/11/06 01:01:50;;;;;;;7.60;5.43;;;;;;;;;;5061222;28;20226;-35
2022/11/06 01:04:20;;;;;;;11.87;6.77;;;;;;;;;;5049091;28;20269;-34
2022/11/06 01:06:52;;;;;;;8.53;6.43;;;;;;;;;;5057552;28;20292;-32
2022/11/06 01:09:20;;;;;;;9.97;6.30;;;;;;;;;;5071073;28;20200;-28
2022/11/06 01:11:55;;;;;;;8.73;6.33;;;;;;;;;;5072526;28;20418;-31
2022/11/06 01:14:23;;;;;;;9.73;6.50;;;;;;;;;;5061473;28;20236;-30
2022/11/06 01:16:50;;;;;;;7.77;5.77;;;;;;;;;;5067549;28;20217;-29
2022/11/06 01:19:19;;;;;;;6.60;5.13;;;;;;;;;;5054172;28;20249;-30
2022/11/06 01:21:47;;;;;;;8.87;6.37;;;;;;;;;;5049695;28;20221;-28
2022/11/06 01:24:15;;;;;;;11.83;7.47;;;;;;;;;;5066823;28;20205;-32
2022/11/06 01:26:43;;;;;;;9.93;6.20;;;;;;;;;;5069661;28;20296;-31
2022/11/06 01:29:12;;;;;;;10.67;6.90;;;;;;;;;;5059279;28;20237;-29
2022/11/06 01:31:40;;;;;;;12.73;7.23;;;;;;;;;;5066977;28;20233;-31
2022/11/06 01:34:07;;;;;;;15.47;8.27;;;;;;;;;;5055120;28;20656;-32
2022/11/06 01:36:36;;;;;;;11.60;7.20;;;;;;;;;;5052493;28;20206;-30
2022/11/06 01:39:05;;;;;;;11.07;7.43;;;;;;;;;;5067370;28;20307;-27
2022/11/06 01:41:32;;;;;;;9.57;6.77;;;;;;;;;;5073996;28;20232;-31
2022/11/06 01:44:01;;;;;;;14.57;7.97;;;;;;;;;;5068772;28;20402;-31
2022/11/06 01:46:28;;;;;;;10.93;7.17;;;;;;;;;;5046426;28;20236;-30
2022/11/06 01:48:58;;;;;;;5.80;4.57;;;;;;;;;;5065192;28;20291;-32
2022/11/06 01:51:27;;;;;;;5.27;3.67;;;;;;;;;;5069534;28;20226;-33
2022/11/06 01:53:56;;;;;;;5.47;4.43;;;;;;;;;;5070336;28;20228;-29
2022/11/06 01:56:23;;;;;;;5.67;4.27;;;;;;;;;;5075110;28;20205;-33
2022/11/06 01:58:52;;;;;;;4.83;4.00;;;;;;;;;;5066668;28;20229;-30
2022/11/06 02:01:19;;;;;;;4.47;4.07;;;;;;;;;;5046871;28;20230;-28
2022/11/06 02:03:49;;;;;;;4.70;4.13;;;;;;;;;;5046404;28;20217;-27
2022/11/06 02:06:16;;;;;;;4.60;4.10;;;;;;;;;;5065354;28;20201;-32
2022/11/06 02:08:43;;;;;;;6.77;4.10;;;;;;;;;;5069261;28;20291;-29
2022/11/06 02:11:12;;;;;;;3.97;3.43;;;;;;;;;;5062345;28;20308;-32
2022/11/06 02:13:44;;;;;;;4.63;3.07;;;;;;;;;;5057929;28;20206;-28
2022/11/06 02:16:15;;;;;;;4.10;3.60;;;;;;;;;;5060319;28;20209;-32
2022/11/06 02:18:59;;;;;;;4.03;3.63;;;;;;;;;;5070797;28;20229;-32
2022/11/06 02:21:31;;;;;;;6.60;3.87;;;;;;;;;;5059371;28;20268;-32
2022/11/06 02:24:09;;;;;;;5.57;3.43;;;;;;;;;;5058954;28;20242;-33
2022/11/06 02:26:57;;;;;;;3.93;3.40;;;;;;;;;;5065002;28;20208;-31
2022/11/06 02:29:28;;;;;;;6.03;3.90;;;;;;;;;;5069857;28;20206;-32
2022/11/06 02:31:56;;;;;;;4.07;3.57;;;;;;;;;;5056048;28;20287;-31
2022/11/06 02:34:25;;;;;;;5.97;4.03;;;;;;;;;;5065692;28;20238;-30
2022/11/06 02:36:53;;;;;;;4.47;3.83;;;;;;;;;;5058602;28;20334;-29
2022/11/06 02:39:22;;;;;;;5.87;4.00;;;;;;;;;;5060895;28;20222;-31
2022/11/06 02:41:50;;;;;;;4.43;3.80;;;;;;;;;;5069429;28;20265;-32
2022/11/06 02:44:21;;;;;;;4.57;3.97;;;;;;;;;;5062378;28;20238;-30
2022/11/06 02:46:51;;;;;;;5.47;4.53;;;;;;;;;;5072645;28;20274;-33
2022/11/06 02:49:21;;;;;;;6.10;4.47;;;;;;;;;;5069099;28;20224;-32
2022/11/06 02:51:50;;;;;;;6.20;4.27;;;;;;;;;;5060437;28;20225;-32
2022/11/06 02:54:19;;;;;;;5.90;4.93;;;;;;;;;;5071840;28;20284;-30
2022/11/06 02:56:47;;;;;;;4.77;3.50;;;;;;;;;;5072332;28;20209;-32
2022/11/06 02:59:15;;;;;;;6.60;4.83;;;;;;;;;;5062481;28;20310;-30
2022/11/06 03:01:47;;;;;;;4.73;4.07;;;;;;;;;;5065632;28;20270;-31
2022/11/06 03:04:17;;;;;;;6.67;5.20;;;;;;;;;;5066798;28;20215;-32
2022/11/06 03:06:46;;;;;;;5.17;4.17;;;;;;;;;;5061049;28;20213;-32
2022/11/06 03:09:15;;;;;;;5.87;4.60;;;;;;;;;;5070235;28;20296;-27
2022/11/06 03:11:43;;;;;;;6.07;4.63;;;;;;;;;;5072415;28;20342;-34
2022/11/06 03:14:13;;;;;;;6.73;4.90;;;;;;;;;;5064359;28;20608;-31
2022/11/06 03:16:44;;;;;;;9.87;4.97;;;;;;;;;;5065113;28;20501;-31
2022/11/06 03:19:19;;;;;;;10.17;4.83;;;;;;;;;;5065953;28;20230;-34
2022/11/06 03:21:50;;;;;;;6.10;4.63;;;;;;;;;;5069981;28;20221;-33
2022/11/06 03:24:19;;;;;;;6.27;4.60;;;;;;;;;;5063075;28;20205;-31
2022/11/06 03:26:49;;;;;;;7.03;5.23;;;;;;;;;;5072294;28;20201;-30
2022/11/06 03:29:18;;;;;;;8.93;4.70;;;;;;;;;;5067081;28;20202;-30
2022/11/06 03:31:48;;;;;;;7.00;5.23;;;;;;;;;;5069949;28;20315;-31
2022/11/06 03:34:20;;;;;;;6.27;5.27;;;;;;;;;;5066423;28;20220;-30
2022/11/06 03:36:50;;;;;;;5.90;4.50;;;;;;;;;;5052194;28;20225;-34
2022/11/06 03:39:20;;;;;;;6.07;5.00;;;;;;;;;;5061825;28;20853;-33
2022/11/06 03:41:50;;;;;;;5.97;4.80;;;;;;;;;;5072109;28;20233;-32
2022/11/06 03:44:20;;;;;;;5.40;4.80;;;;;;;;;;5068918;28;20201;-32
2022/11/06 03:46:49;;;;;;;5.40;4.80;;;;;;;;;;5069566;28;20216;-29
2022/11/06 03:49:21;;;;;;;6.90;4.60;;;;;;;;;;5052788;28;20265;-32
2022/11/06 03:51:51;;;;;;;4.83;4.27;;;;;;;;;;5071003;28;20316;-27
2022/11/06 03:54:21;;;;;;;6.60;4.97;;;;;;;;;;5069493;28;20202;-31
2022/11/06 03:56:50;;;;;;;6.40;4.47;;;;;;;;;;5071740;28;20215;-31
2022/11/06 03:59:22;;;;;;;7.83;4.53;;;;;;;;;;5066754;28;20213;-34
2022/11/06 04:01:49;;;;;;;5.40;4.00;;;;;;;;;;5067365;28;20225;-34
2022/11/06 04:04:20;;;;;;;5.00;4.50;;;;;;;;;;5058345;28;20213;-33
2022/11/06 04:06:49;;;;;;;4.87;4.37;;;;;;;;;;5072037;28;20205;-32
2022/11/06 04:14:49;;;;;;;6.53;4.67;;;;;;;;;;5054325;28;20201;-31
2022/11/06 04:17:17;;;;;;;6.07;4.13;;;;;;;;;;5436757;22;20327;-35
2022/11/06 04:19:47;;;;;;;6.57;4.50;;;;;;;;;;5083899;28;20229;-33
2022/11/06 04:22:22;;;;;;;6.70;5.13;;;;;;;;;;5082644;28;20196;-35
2022/11/06 04:27:57;;;;;;;5.97;4.67;;;;;;;;;;5015667;28;20273;-32
2022/11/06 04:30:24;;;;;;;4.87;3.87;;;;;;;;;;5077745;28;20216;-33
2022/11/06 04:33:01;;;;;;;4.60;4.07;;;;;;;;;;5086453;28;20266;-33
2022/11/06 04:35:32;;;;;;;11.57;6.93;;;;;;;;;;5078560;28;20205;-30
2022/11/06 04:38:03;;;;;;;5.40;4.20;;;;;;;;;;5087156;28;20407;-34
2022/11/06 04:40:33;;;;;;;5.83;4.47;;;;;;;;;;5090490;28;20225;-30
2022/11/06 04:43:02;;;;;;;5.40;4.53;;;;;;;;;;5088413;28;20196;-32
2022/11/06 04:45:32;;;;;;;6.43;4.43;;;;;;;;;;5077688;28;20271;-34
2022/11/06 04:48:00;;;;;;;7.13;4.63;;;;;;;;;;5089088;28;20200;-31
2022/11/06 04:50:28;;;;;;;4.50;3.77;;;;;;;;;;5079512;28;20220;-31
2022/11/06 04:52:57;;;;;;;4.30;3.90;;;;;;;;;;5083133;28;20208;-33
2022/11/06 04:55:24;;;;;;;4.37;3.80;;;;;;;;;;5091196;28;20205;-33
2022/11/06 04:57:51;;;;;;;4.10;3.67;;;;;;;;;;5086029;28;20599;-31
2022/11/06 05:00:18;;;;;;;5.40;3.83;;;;;;;;;;5084940;28;20234;-31
2022/11/06 05:02:45;;;;;;;4.83;3.53;;;;;;;;;;5091805;28;20210;-29
2022/11/06 05:05:13;;;;;;;4.93;3.57;;;;;;;;;;5080233;28;20205;-30
2022/11/06 05:07:40;;;;;;;7.10;3.30;;;;;;;;;;5091125;28;20204;-32
2022/11/06 05:10:10;;;;;;;4.63;4.00;;;;;;;;;;5092807;28;20217;-30
2022/11/06 05:12:37;;;;;;;3.73;3.23;;;;;;;;;;5090068;28;20207;-30
2022/11/06 05:15:04;;;;;;;3.90;3.50;;;;;;;;;;5074063;28;20209;-31
2022/11/06 05:17:31;;;;;;;3.80;3.40;;;;;;;;;;5080924;28;20308;-30
2022/11/06 05:19:58;;;;;;;4.07;3.67;;;;;;;;;;5076625;28;20316;-32
2022/11/06 05:25:12;;;;;;;3.83;3.47;;;;;;;;;;5089436;28;20253;-32
2022/11/06 05:27:39;;;;;;;4.57;3.57;;;;;;;;;;5087950;28;20201;-30
2022/11/06 05:30:06;;;;;;;3.17;2.97;;;;;;;;;;5076201;28;20221;-28
2022/11/06 05:32:34;;;;;;;3.70;3.30;;;;;;;;;;5087681;28;20287;-29
2022/11/06 05:35:01;;;;;;;4.00;3.60;;;;;;;;;;5087207;28;20209;-33
2022/11/06 05:37:28;;;;;;;3.27;2.90;;;;;;;;;;5084742;28;20205;-34
2022/11/06 05:39:55;;;;;;;3.53;3.23;;;;;;;;;;5089274;28;20212;-30
2022/11/06 05:42:24;;;;;;;3.87;3.33;;;;;;;;;;5089722;28;20208;-31
2022/11/06 05:44:52;;;;;;;6.23;3.30;;;;;;;;;;5080990;28;20741;-31
2022/11/06 05:47:19;;;;;;;4.13;3.40;;;;;;;;;;5081847;28;20257;-33
2022/11/06 05:49:46;;;;;;;4.70;3.23;;;;;;;;;;5082614;28;20316;-31
2022/11/06 05:52:13;;;;;;;3.63;3.27;;;;;;;;;;5081600;28;20207;-34
2022/11/06 05:54:41;;;;;;;2.60;2.40;;;;;;;;;;5089508;28;20200;-32
2022/11/06 05:57:08;;;;;;;2.87;2.50;;;;;;;;;;5087116;28;20243;-32
2022/11/06 05:59:36;;;;;;;3.70;2.80;;;;;;;;;;5087948;28;20234;-29
2022/11/06 06:02:04;;;;;;;3.13;2.83;;;;;;;;;;5089295;28;20289;-30
2022/11/06 06:04:31;;;;;;;2.83;2.53;;;;;;;;;;5082950;28;20494;-32
2022/11/06 06:06:58;;;;;;;3.73;3.00;;;;;;;;;;5077639;28;20205;-31
2022/11/06 06:09:25;;;;;;;4.00;2.80;;;;;;;;;;5088652;28;20287;-34
2022/11/06 06:11:52;;;;;;;3.67;3.20;;;;;;;;;;5086389;28;20280;-33
2022/11/06 06:14:20;;;;;;;6.63;2.73;;;;;;;;;;5081004;28;20197;-34
2022/11/06 06:16:48;;;;;;;4.67;3.00;;;;;;;;;;5088971;28;20209;-30
2022/11/06 06:19:15;;;;;;;4.07;3.10;;;;;;;;;;5086352;28;20225;-32
2022/11/06 06:21:42;;;;;;;3.13;2.77;;;;;;;;;;5088150;28;20220;-31
2022/11/06 06:24:10;;;;;;;3.47;3.17;;;;;;;;;;5092156;28;20295;-34
2022/11/06 06:26:37;;;;;;;3.20;2.90;;;;;;;;;;5093143;28;20256;-33
2022/11/06 06:29:04;;;;;;;3.97;3.27;;;;;;;;;;5078810;28;20206;-35
2022/11/06 06:31:31;;;;;;;4.83;3.63;;;;;;;;;;5086704;28;20231;-34
2022/11/06 06:34:00;;;;;;;3.60;2.90;;;;;;;;;;5093283;28;20283;-29
2022/11/06 06:36:27;;;;;;;3.80;3.23;;;;;;;;;;5082173;28;20292;-32
2022/11/06 06:38:54;;;;;;;5.97;3.83;;;;;;;;;;5091329;28;20247;-35
2022/11/06 06:41:22;;;;;;;3.83;3.33;;;;;;;;;;5095442;28;20228;-34
2022/11/06 06:43:49;;;;;;;3.67;3.23;;;;;;;;;;5093250;28;20204;-30
2022/11/06 06:46:16;;;;;;;8.10;4.17;;;;;;;;;;5093865;28;20207;-30
2022/11/06 06:48:43;;;;;;;4.33;3.30;;;;;;;;;;5094712;28;20203;-31
2022/11/06 06:51:12;;;;;;;5.27;3.40;;;;;;;;;;5088768;28;20225;-32
2022/11/06 06:53:39;;;;;;;3.87;3.40;;;;;;;;;;5089065;28;20204;-31
2022/11/06 06:56:07;;;;;;;4.57;3.53;;;;;;;;;;5094561;28;20321;-31
2022/11/06 06:58:34;;;;;;;3.93;3.37;;;;;;;;;;5090342;28;20205;-33
2022/11/06 07:01:02;;;;;;;6.37;3.70;;;;;;;;;;5086567;28;20550;-32
2022/11/06 07:03:29;;;;;;;3.63;3.30;;;;;;;;;;5093956;28;20252;-29
2022/11/06 07:05:57;;;;;;;4.20;3.23;;;;;;;;;;5086489;28;20210;-27
2022/11/06 07:08:25;;;;;;;4.30;3.90;;;;;;;;;;5093242;28;20201;-29
2022/11/06 07:10:53;;;;;;;6.40;3.33;;;;;;;;;;5094305;28;20216;-30
2022/11/06 07:13:20;;;;;;;3.57;3.27;;;;;;;;;;5093152;28;20208;-31
2022/11/06 07:15:53;;;;;;;4.53;3.73;;;;;;;;;;5088165;28;20220;-30
2022/11/06 07:18:20;;;;;;;3.40;3.00;;;;;;;;;;5079223;28;20214;-32
2022/11/06 07:20:47;;;;;;;3.37;3.07;;;;;;;;;;5074837;28;20241;-29
2022/11/06 07:23:14;;;;;;;3.50;3.20;;;;;;;;;;5084010;28;20300;-32
2022/11/06 07:25:43;;;;;;;4.20;2.80;;;;;;;;;;5093602;28;20671;-31
2022/11/06 07:28:10;;;;;;;3.60;2.80;;;;;;;;;;5094083;28;20207;-32
2022/11/06 07:30:37;;;;;;;2.50;2.30;;;;;;;;;;5084250;28;20226;-32
2022/11/06 07:33:06;;;;;;;3.10;2.80;;;;;;;;;;5093957;28;20215;-29
2022/11/06 07:35:34;;;;;;;3.97;2.87;;;;;;;;;;5081296;28;20261;-30
2022/11/06 07:38:03;;;;;;;3.20;2.73;;;;;;;;;;5089960;28;20208;-30
2022/11/06 07:40:30;;;;;;;2.97;2.70;;;;;;;;;;5086720;28;20235;-28
2022/11/06 07:43:04;;;;;;;3.10;2.60;;;;;;;;;;5095736;28;20295;-30
2022/11/06 07:45:31;;;;;;;4.60;2.93;;;;;;;;;;5083278;28;20216;-32
2022/11/06 07:47:59;;;;;;;4.37;2.80;;;;;;;;;;5090543;28;20200;-33
2022/11/06 07:50:26;;;;;;;2.90;2.37;;;;;;;;;;5089464;28;20221;-32
2022/11/06 07:52:53;;;;;;;3.20;2.90;;;;;;;;;;5093471;28;20296;-32
2022/11/06 07:55:20;;;;;;;3.57;3.27;;;;;;;;;;5093570;28;20201;-30
2022/11/06 07:57:47;;;;;;;4.37;3.37;;;;;;;;;;5093685;28;20284;-33
2022/11/06 08:00:16;;;;;;;7.23;3.40;;;;;;;;;;5080770;28;20238;-32
2022/11/06 08:02:43;;;;;;;4.13;3.30;;;;;;;;;;5088770;28;20211;-32
2022/11/06 08:05:10;;;;;;;5.70;3.37;;;;;;;;;;5086847;28;20214;-33
2022/11/06 08:07:37;;;;;;;5.50;3.93;;;;;;;;;;5085106;28;20215;-31
2022/11/06 08:10:05;;;;;;;5.03;3.70;;;;;;;;;;5093274;28;20223;-32
2022/11/06 08:12:32;;;;;;;6.40;3.77;;;;;;;;;;5093246;28;20215;-31
2022/11/06 08:14:59;;;;;;;4.07;3.30;;;;;;;;;;5081869;28;20209;-32
2022/11/06 08:17:29;;;;;;;4.00;3.13;;;;;;;;;;5089387;28;20217;-32
2022/11/06 08:19:57;;;;;;;4.77;3.77;;;;;;;;;;5084265;28;20231;-29
2022/11/06 08:22:24;;;;;;;4.73;3.80;;;;;;;;;;5092163;28;20211;-31
2022/11/06 08:24:51;;;;;;;3.97;3.57;;;;;;;;;;5275832;22;20228;-34
2022/11/06 08:27:18;;;;;;;5.27;4.00;;;;;;;;;;5107354;28;20211;-34
2022/11/06 08:29:45;;;;;;;4.97;4.10;;;;;;;;;;5106899;28;20198;-34
2022/11/06 08:32:12;;;;;;;5.50;4.10;;;;;;;;;;5098277;28;20283;-33
2022/11/06 08:34:41;;;;;;;4.17;3.50;;;;;;;;;;5085541;28;20212;-35
2022/11/06 08:37:10;;;;;;;5.03;4.00;;;;;;;;;;5096881;28;20678;-36
2022/11/06 08:39:37;;;;;;;4.87;4.17;;;;;;;;;;5090604;28;20228;-35
2022/11/06 08:42:05;;;;;;;6.53;4.90;;;;;;;;;;5089965;28;20207;-36
2022/11/06 08:44:32;;;;;;;5.97;4.80;;;;;;;;;;5083693;28;20212;-30
2022/11/06 08:46:59;;;;;;;9.77;5.63;;;;;;;;;;5086330;28;20201;-32
2022/11/06 08:49:26;;;;;;;6.73;5.03;;;;;;;;;;5082158;28;20213;-31
2022/11/06 08:51:54;;;;;;;8.57;6.07;;;;;;;;;;5082498;28;20255;-30
2022/11/06 08:54:22;;;;;;;7.03;5.53;;;;;;;;;;5089618;28;20204;-34
2022/11/06 08:56:49;;;;;;;5.07;4.37;;;;;;;;;;5084602;28;20295;-31
2022/11/06 08:59:16;;;;;;;7.90;5.07;;;;;;;;;;5084292;28;20295;-34
2022/11/06 09:01:43;;;;;;;7.43;5.23;;;;;;;;;;5085853;28;20225;-36
2022/11/06 09:04:11;;;;;;;6.70;5.47;;;;;;;;;;5082517;28;20208;-32
2022/11/06 09:06:39;;;;;;;9.37;5.40;;;;;;;;;;5077635;28;20209;-35
2022/11/06 09:09:08;;;;;;;7.90;5.73;;;;;;;;;;5086705;28;20208;-32
2022/11/06 09:11:35;;;;;;;8.93;5.93;;;;;;;;;;5090500;28;20255;-32
2022/11/06 09:14:03;;;;;;;7.23;5.00;;;;;;;;;;5083652;28;20201;-33
2022/11/06 09:16:30;;;;;;;7.87;5.50;;;;;;;;;;5081212;28;20200;-30
2022/11/06 09:18:57;;;;;;;7.63;5.20;;;;;;;;;;5084506;28;20204;-36
2022/11/06 09:21:24;;;;;;;6.87;5.13;;;;;;;;;;5082612;28;20233;-30
2022/11/06 09:23:52;;;;;;;7.73;6.33;;;;;;;;;;5086232;28;20203;-36
2022/11/06 09:26:20;;;;;;;7.13;5.70;;;;;;;;;;5089047;28;20240;-34
2022/11/06 09:28:47;;;;;;;8.23;5.60;;;;;;;;;;5084815;28;20221;-31
2022/11/06 09:31:14;;;;;;;6.60;5.00;;;;;;;;;;5087180;28;20228;-33
2022/11/06 09:33:42;;;;;;;7.30;5.97;;;;;;;;;;5080807;28;20205;-35
2022/11/06 09:36:10;;;;;;;6.73;5.03;;;;;;;;;;5081187;28;20215;-30
2022/11/06 09:38:37;;;;;;;7.27;5.20;;;;;;;;;;5086368;28;20556;-34
2022/11/06 09:41:04;;;;;;;8.07;5.03;;;;;;;;;;5091970;28;20320;-33
2022/11/06 09:43:37;;;;;;;6.07;4.50;;;;;;;;;;5088549;28;20204;-35
2022/11/06 09:46:06;;;;;;;5.80;4.77;;;;;;;;;;5090807;28;20283;-30
2022/11/06 09:48:36;;;;;;;5.90;4.77;;;;;;;;;;5092324;28;20211;-33
2022/11/06 09:51:11;;;;;;;6.43;4.80;;;;;;;;;;5088509;28;20220;-33
2022/11/06 09:53:40;;;;;;;7.90;5.47;;;;;;;;;;5086870;28;20208;-35
2022/11/06 09:56:11;;;;;;;7.97;5.80;;;;;;;;;;5096113;28;20607;-34
2022/11/06 09:58:42;;;;;;;7.60;5.53;;;;;;;;;;5076597;28;20219;-36
2022/11/06 10:01:14;;;;;;;7.20;5.37;;;;;;;;;;5079935;28;20231;-33
2022/11/06 10:03:44;;;;;;;7.17;4.87;;;;;;;;;;5091664;28;20207;-32
2022/11/06 10:06:12;;;;;;;6.30;5.27;;;;;;;;;;5079699;28;20285;-30
2022/11/06 10:08:41;;;;;;;7.10;5.87;;;;;;;;;;5095520;28;20295;-35
2022/11/06 10:11:24;;;;;;;7.47;5.57;;;;;;;;;;5096234;28;20229;-34
2022/11/06 10:13:58;;;;;;;8.03;5.93;;;;;;;;;;5092373;28;20200;-30
2022/11/06 10:16:31;;;;;;;6.67;5.77;;;;;;;;;;5093688;28;20209;-34
2022/11/06 10:19:05;;;;;;;6.93;5.47;;;;;;;;;;5181548;22;20697;-32
2022/11/06 10:21:37;;;;;;;7.40;5.87;;;;;;;;;;5085242;28;20312;-32
2022/11/06 10:24:14;;;;;;;6.10;4.60;;;;;;;;;;5100346;28;20188;-34
2022/11/06 10:26:42;;;;;;;6.20;4.93;;;;;;;;;;5095971;28;20189;-33
2022/11/06 10:29:21;;;;;;;7.53;5.90;;;;;;;;;;5087421;28;20248;-30
2022/11/06 10:31:53;;;;;;;6.03;5.00;;;;;;;;;;5093564;28;20223;-32
2022/11/06 10:34:22;;;;;;;6.77;5.17;;;;;;;;;;5083260;28;20211;-33
2022/11/06 10:36:51;;;;;;;6.37;5.33;;;;;;;;;;5086833;28;20206;-32
2022/11/06 10:39:20;;;;;;;6.67;5.37;;;;;;;;;;5093650;28;20209;-34
2022/11/06 10:41:49;;;;;;;7.97;5.83;;;;;;;;;;5095958;28;20324;-35
2022/11/06 10:44:22;;;;;;;8.53;5.70;;;;;;;;;;5089366;28;20205;-33
2022/11/06 10:46:53;;;;;;;5.30;4.57;;;;;;;;;;5090473;28;20204;-35
2022/11/06 10:49:25;;;;;;;6.60;4.67;;;;;;;;;;5083151;28;20204;-32
2022/11/06 10:52:00;;;;;;;6.13;4.90;;;;;;;;;;5079573;28;20225;-34
2022/11/06 10:54:36;;;;;;;4.87;4.10;;;;;;;;;;5088510;28;20299;-32
2022/11/06 10:57:09;;;;;;;6.63;4.30;;;;;;;;;;5091074;28;20204;-33
2022/11/06 10:59:38;;;;;;;5.00;3.37;;;;;;;;;;5073984;28;20200;-33
2022/11/06 11:02:10;;;;;;;4.57;3.40;;;;;;;;;;5088328;28;20220;-32
2022/11/06 11:04:39;;;;;;;4.03;3.40;;;;;;;;;;5079310;28;20204;-35
2022/11/06 11:07:11;;;;;;;3.60;3.30;;;;;;;;;;5090202;28;20209;-36
2022/11/06 11:09:38;;;;;;;4.87;3.30;;;;;;;;;;5090321;28;20218;-33
2022/11/06 11:12:05;;;;;;;2.43;2.23;;;;;;;;;;5083214;28;20211;-32
2022/11/06 11:14:33;;;;;;;2.73;2.50;;;;;;;;;;5086364;28;20207;-32
2022/11/06 11:17:08;;;;;;;2.23;2.03;;;;;;;;;;5087134;28;20201;-34
2022/11/06 11:19:37;;;;;;;1.90;1.80;;;;;;;;;;5051442;28;20210;-35
2022/11/06 11:22:05;;;;;;;2.10;1.90;;;;;;;;;;5062693;28;20312;-32
2022/11/06 11:24:32;;;;;;;2.00;1.70;;;;;;;;;;5071179;28;20251;-31
2022/11/06 11:27:01;;;;;;;4.80;2.20;;;;;;;;;;5066745;28;20225;-33
2022/11/06 11:29:30;;;;;;;8.43;2.50;;;;;;;;;;5061323;28;20217;-36
2022/11/06 11:31:58;;;;;;;2.97;2.67;;;;;;;;;;5066662;28;20232;-34
2022/11/06 11:34:29;;;;;;;1.93;1.73;;;;;;;;;;5062735;28;20302;-31
2022/11/06 11:36:58;;;;;;;3.10;2.80;;;;;;;;;;5052355;28;20198;-35
2022/11/06 11:39:28;;;;;;;4.57;2.60;;;;;;;;;;5070917;28;20215;-32
2022/11/06 11:42:16;;;;;;;3.00;2.70;;;;;;;;;;5071069;28;20243;-31
2022/11/06 11:44:43;;;;;;;3.30;3.00;;;;;;;;;;5064263;28;20205;-35
2022/11/06 11:47:20;;;;;;;2.30;2.10;;;;;;;;;;5069949;28;20213;-30
2022/11/06 11:49:49;;;;;;;3.80;2.17;;;;;;;;;;5061374;28;20292;-33
2022/11/06 11:52:19;;;;;;;3.20;2.90;;;;;;;;;;5067832;28;20204;-35
2022/11/06 11:54:48;;;;;;;3.30;2.90;;;;;;;;;;5069840;28;20213;-34
2022/11/06 11:57:19;;;;;;;2.97;2.67;;;;;;;;;;5069346;28;20213;-33
2022/11/06 11:59:47;;;;;;;2.93;2.73;;;;;;;;;;5066850;28;20209;-35
2022/11/06 12:02:17;;;;;;;2.77;2.57;;;;;;;;;;5064248;28;20221;-31
2022/11/06 12:04:46;;;;;;;2.70;2.20;;;;;;;;;;5064744;28;20288;-32
2022/11/06 12:07:22;;;;;;;2.63;2.43;;;;;;;;;;5070129;28;20271;-30
2022/11/06 12:09:50;;;;;;;2.77;2.57;;;;;;;;;;5068734;28;20219;-32
2022/11/06 12:12:22;;;;;;;3.33;2.60;;;;;;;;;;5069612;28;20652;-29
2022/11/06 12:15:03;;;;;;;2.73;2.17;;;;;;;;;;5066859;28;20208;-30
2022/11/06 12:17:32;;;;;;;2.77;2.47;;;;;;;;;;5073437;28;20216;-32
2022/11/06 12:20:01;;;;;;;5.50;4.20;;;;;;;;;;5103873;28;20236;-32
2022/11/06 12:22:36;;;;;;;5.03;3.40;;;;;;;;;;5108415;28;20277;-36
2022/11/06 12:25:07;;;;;;;3.73;3.37;;;;;;;;;;5110355;27;20350;-34
2022/11/06 12:27:37;;;;;;;3.53;3.07;;;;;;;;;;5110233;28;20208;-31
2022/11/06 12:30:05;;;;;;;3.07;2.77;;;;;;;;;;5100830;28;20227;-36
2022/11/06 12:32:37;;;;;;;6.30;3.40;;;;;;;;;;5111453;28;20210;-33
2022/11/06 12:35:08;;;;;;;3.27;2.97;;;;;;;;;;5105700;28;20295;-33
2022/11/06 12:37:41;;;;;;;2.63;2.37;;;;;;;;;;5110126;28;20214;-35
2022/11/06 12:40:15;;;;;;;2.43;2.23;;;;;;;;;;5103725;28;20228;-34
2022/11/06 12:42:55;;;;;;;3.33;2.93;;;;;;;;;;5105214;28;20199;-31
2022/11/06 12:45:25;;;;;;;2.90;2.50;;;;;;;;;;5103641;28;20208;-31
2022/11/06 12:47:56;;;;;;;3.17;2.80;;;;;;;;;;5112122;28;20204;-31
2022/11/06 12:50:31;;;;;;;4.13;2.90;;;;;;;;;;5101828;28;20607;-30
2022/11/06 12:53:05;;;;;;;3.63;2.70;;;;;;;;;;5111573;28;20203;-37
2022/11/06 12:55:35;;;;;;;2.80;2.53;;;;;;;;;;5112731;28;20223;-32
2022/11/06 12:58:10;;;;;;;2.17;1.97;;;;;;;;;;5103970;28;20402;-33
2022/11/06 13:00:39;;;;;;;2.80;2.27;;;;;;;;;;5108390;28;20222;-33
2022/11/06 13:03:25;;;;;;;2.17;1.87;;;;;;;;;;5105900;28;20199;-33
2022/11/06 13:05:55;;;;;;;2.70;2.50;;;;;;;;;;5103751;28;20200;-34
2022/11/06 13:08:31;;;;;;;2.30;2.10;;;;;;;;;;5104506;28;20192;-32
2022/11/06 13:11:14;;;;;;;2.67;2.47;;;;;;;;;;5109067;28;20223;-34
2022/11/06 13:13:51;;;;;;;2.80;2.60;;;;;;;;;;5103357;28;20208;-32
2022/11/06 13:16:22;;;;;;;2.53;2.33;;;;;;;;;;5100306;28;20201;-34
2022/11/06 13:18:52;;;;;;;2.60;2.40;;;;;;;;;;5111814;28;20223;-31
2022/11/06 13:21:22;;;;;;;2.63;2.43;;;;;;;;;;5110908;28;20320;-30
2022/11/06 13:23:50;;;;;;;2.60;2.23;;;;;;;;;;5108748;28;20224;-33
2022/11/06 13:26:22;;;;;;;3.53;2.30;;;;;;;;;;5111907;28;20206;-33
2022/11/06 13:28:54;;;;;;;3.63;2.40;;;;;;;;;;5111154;28;20200;-34
2022/11/06 13:31:23;;;;;;;2.20;2.00;;;;;;;;;;5118128;28;20244;-32
2022/11/06 13:33:53;;;;;;;2.40;2.20;;;;;;;;;;5118257;28;20214;-33
2022/11/06 13:36:20;;;;;;;2.70;2.50;;;;;;;;;;5113107;28;20196;-30
2022/11/06 13:38:51;;;;;;;2.60;2.40;;;;;;;;;;5119049;28;20206;-33
2022/11/06 13:41:40;;;;;;;3.33;2.63;;;;;;;;;;5112925;28;20314;-30
2022/11/06 13:44:14;;;;;;;2.40;2.13;;;;;;;;;;5113383;28;20206;-34
2022/11/06 13:46:48;;;;;;;3.20;2.90;;;;;;;;;;5118811;28;20207;-35
2022/11/06 13:49:20;;;;;;;3.03;2.47;;;;;;;;;;5116416;28;20287;-33
2022/11/06 13:51:51;;;;;;;2.60;2.40;;;;;;;;;;5117004;28;20219;-34
2022/11/06 13:54:24;;;;;;;2.77;2.53;;;;;;;;;;5113210;28;20211;-31
2022/11/06 13:57:15;;;;;;;2.97;2.67;;;;;;;;;;5113779;28;20199;-34
2022/11/06 13:59:54;;;;;;;3.67;2.73;;;;;;;;;;5110493;28;20210;-33
2022/11/06 14:02:39;;;;;;;2.63;2.10;;;;;;;;;;5118862;28;20224;-30
2022/11/06 14:05:24;;;;;;;2.87;2.63;;;;;;;;;;5113369;28;20210;-32
2022/11/06 14:07:52;;;;;;;2.80;2.37;;;;;;;;;;5113997;28;20204;-32
2022/11/06 14:10:20;;;;;;;2.63;2.43;;;;;;;;;;5115637;28;20223;-35
2022/11/06 14:12:48;;;;;;;1.87;1.77;;;;;;;;;;5119234;28;20213;-37
2022/11/06 14:15:23;;;;;;;2.90;2.57;;;;;;;;;;5112935;28;20204;-32
2022/11/06 14:17:57;;;;;;;2.67;2.47;;;;;;;;;;5114875;28;20274;-31
2022/11/06 14:20:29;;;;;;;3.43;3.13;;;;;;;;;;5104155;28;20231;-31
2022/11/06 14:22:56;;;;;;;3.20;2.90;;;;;;;;;;5113978;28;20228;-30
2022/11/06 14:25:42;;;;;;;3.73;2.90;;;;;;;;;;5108228;28;20299;-33
2022/11/06 14:28:09;;;;;;;3.40;2.93;;;;;;;;;;5111578;28;20212;-30
2022/11/06 14:30:43;;;;;;;3.60;3.00;;;;;;;;;;5117211;28;20228;-30
2022/11/06 14:33:33;;;;;;;2.70;2.50;;;;;;;;;;5113708;28;20199;-31
2022/11/06 14:36:12;;;;;;;3.93;3.20;;;;;;;;;;5105746;28;20211;-31
2022/11/06 14:38:41;;;;;;;6.13;2.70;;;;;;;;;;5112474;28;20204;-30
2022/11/06 14:41:27;;;;;;;3.73;3.10;;;;;;;;;;5109120;28;20646;-34
2022/11/06 14:43:55;;;;;;;3.93;3.30;;;;;;;;;;5098370;28;20208;-33
2022/11/06 14:46:23;;;;;;;3.97;3.33;;;;;;;;;;5107976;28;20208;-36
2022/11/06 14:48:52;;;;;;;3.77;3.43;;;;;;;;;;5110342;28;20210;-33
2022/11/06 14:51:26;;;;;;;3.83;3.43;;;;;;;;;;5110306;28;20216;-31
2022/11/06 14:53:54;;;;;;;3.13;2.80;;;;;;;;;;5111835;28;20267;-34
2022/11/06 14:56:23;;;;;;;2.97;2.67;;;;;;;;;;5109393;28;20214;-32
2022/11/06 14:58:52;;;;;;;4.23;3.00;;;;;;;;;;5104681;28;20208;-36
2022/11/06 15:01:25;;;;;;;2.93;2.67;;;;;;;;;;5111539;28;20220;-31
2022/11/06 15:03:54;;;;;;;3.33;3.03;;;;;;;;;;5110971;28;20341;-35
2022/11/06 15:06:39;;;;;;;2.97;2.67;;;;;;;;;;5108824;28;20204;-35
2022/11/06 15:09:07;;;;;;;3.40;3.03;;;;;;;;;;5108782;28;20196;-36
2022/11/06 15:11:54;;;;;;;3.43;3.10;;;;;;;;;;5103203;28;20277;-35